Time;durP1;ratioP1;P1;durP2;ratioP2;P2;SDS_P1;SDS_P2;PMS_P1;PMS_P2;Temp;Humidity;BMP_temperature;BMP_pressure;BME280_temperature;BME280_humidity;BME280_pressure;Samples;Min_cycle;Max_cycle;Signal;HPM_P1;HPM_P2
2021/05/21 00:01:47;;;;;;;1.83;1.37;;;13.60;99.90;;;;;;5070565;28;20195;-69
2021/05/21 00:04:15;;;;;;;1.63;1.53;;;13.60;99.90;;;;;;5072110;28;20208;-69
2021/05/21 00:06:48;;;;;;;1.43;1.23;;;13.50;99.90;;;;;;5071234;28;20705;-70
2021/05/21 00:09:16;;;;;;;4.73;1.50;;;13.50;99.90;;;;;;5068962;28;20224;-69
2021/05/21 00:11:44;;;;;;;1.47;1.40;;;13.50;99.90;;;;;;5069546;28;20228;-66
2021/05/21 00:14:12;;;;;;;2.30;1.43;;;13.40;99.90;;;;;;5073277;28;20665;-70
2021/05/21 00:16:40;;;;;;;3.13;1.30;;;13.40;99.90;;;;;;5077134;28;20714;-70
2021/05/21 00:19:07;;;;;;;1.60;1.50;;;13.40;99.90;;;;;;5074337;28;20229;-70
2021/05/21 00:21:36;;;;;;;1.50;1.40;;;13.40;99.90;;;;;;5068919;28;20294;-69
2021/05/21 00:24:05;;;;;;;1.50;1.40;;;13.30;99.90;;;;;;5074638;28;20196;-70
2021/05/21 00:26:33;;;;;;;5.60;1.70;;;13.40;99.90;;;;;;5073611;28;20198;-68
2021/05/21 00:29:01;;;;;;;1.53;1.47;;;13.40;99.90;;;;;;5072309;28;20189;-70
2021/05/21 00:31:28;;;;;;;3.40;1.50;;;13.40;99.90;;;;;;5071672;28;20279;-70
2021/05/21 00:33:56;;;;;;;3.03;1.57;;;13.50;99.90;;;;;;5069924;28;20288;-70
2021/05/21 00:36:24;;;;;;;1.83;1.53;;;13.50;99.90;;;;;;5075278;28;20192;-70
2021/05/21 00:38:53;;;;;;;1.70;1.60;;;13.40;99.90;;;;;;5070713;28;20196;-68
2021/05/21 00:41:21;;;;;;;4.37;1.43;;;13.30;99.90;;;;;;5064489;28;20261;-69
2021/05/21 00:43:52;;;;;;;2.60;1.60;;;13.30;99.90;;;;;;5076179;28;20254;-70
2021/05/21 00:46:20;;;;;;;1.60;1.50;;;13.30;99.90;;;;;;5067136;28;20188;-68
2021/05/21 00:48:50;;;;;;;1.80;1.37;;;13.30;99.90;;;;;;5070943;28;20239;-69
2021/05/21 00:51:18;;;;;;;4.33;1.60;;;13.30;99.90;;;;;;5070478;28;20199;-70
2021/05/21 00:53:46;;;;;;;5.13;1.60;;;13.30;99.90;;;;;;5072635;28;20196;-69
2021/05/21 00:56:15;;;;;;;4.13;1.50;;;13.40;99.90;;;;;;5072472;28;20196;-70
2021/05/21 00:58:43;;;;;;;2.77;1.90;;;13.40;99.90;;;;;;5070623;28;20195;-70
2021/05/21 01:01:15;;;;;;;2.83;1.53;;;13.40;99.90;;;;;;5069863;28;20203;-70
2021/05/21 01:03:43;;;;;;;3.20;1.53;;;13.40;99.90;;;;;;5070800;28;20196;-70
2021/05/21 01:06:12;;;;;;;4.53;1.87;;;13.40;99.90;;;;;;5068470;28;20611;-70
2021/05/21 01:08:40;;;;;;;3.10;1.60;;;13.40;99.90;;;;;;5070812;28;20247;-68
2021/05/21 01:11:09;;;;;;;1.80;1.50;;;13.40;99.90;;;;;;5069773;28;20878;-71
2021/05/21 01:13:38;;;;;;;3.50;1.60;;;13.50;99.90;;;;;;5068775;28;20250;-70
2021/05/21 01:16:06;;;;;;;3.70;1.67;;;13.40;99.90;;;;;;5065143;28;20702;-70
2021/05/21 01:18:34;;;;;;;4.63;1.40;;;13.40;99.90;;;;;;5071330;28;20176;-67
2021/05/21 01:21:03;;;;;;;3.87;1.70;;;13.40;99.90;;;;;;5073059;28;20278;-68
2021/05/21 01:23:32;;;;;;;3.33;1.70;;;13.40;99.90;;;;;;5075119;28;20200;-69
2021/05/21 01:26:00;;;;;;;4.67;1.60;;;13.40;99.90;;;;;;5073087;28;20304;-69
2021/05/21 01:28:28;;;;;;;2.87;1.63;;;13.40;99.90;;;;;;5074223;28;20251;-70
2021/05/21 01:30:56;;;;;;;4.50;1.67;;;13.40;99.90;;;;;;5084310;28;20227;-70
2021/05/21 01:33:24;;;;;;;5.60;1.80;;;13.40;99.90;;;;;;5100629;27;20295;-70
2021/05/21 01:35:54;;;;;;;8.70;2.33;;;13.40;99.90;;;;;;5069193;28;20605;-70
2021/05/21 01:38:23;;;;;;;5.57;2.00;;;13.50;99.90;;;;;;5072257;28;20317;-70
2021/05/21 01:40:51;;;;;;;5.23;1.93;;;13.50;99.90;;;;;;5065570;28;20228;-70
2021/05/21 01:43:19;;;;;;;5.50;1.80;;;13.50;99.90;;;;;;5068583;28;20614;-71
2021/05/21 01:45:46;;;;;;;4.77;2.00;;;13.40;99.90;;;;;;5068213;28;20698;-70
2021/05/21 01:48:14;;;;;;;3.80;1.83;;;13.30;99.90;;;;;;5071891;28;20746;-70
2021/05/21 01:50:43;;;;;;;4.07;1.80;;;13.30;99.90;;;;;;5068542;28;20220;-71
2021/05/21 01:53:11;;;;;;;4.53;1.93;;;13.20;99.90;;;;;;5069706;28;21063;-70
2021/05/21 01:55:49;;;;;;;1.83;1.70;;;13.20;99.90;;;;;;5068337;28;20232;-70
2021/05/21 01:58:17;;;;;;;5.17;1.73;;;13.10;99.90;;;;;;5071832;28;20184;-70
2021/05/21 02:00:44;;;;;;;4.93;2.13;;;13.00;99.90;;;;;;5066869;28;20215;-70
2021/05/21 02:03:12;;;;;;;4.10;1.73;;;12.90;99.90;;;;;;5069923;28;20219;-70
2021/05/21 02:05:40;;;;;;;3.37;1.80;;;12.80;99.90;;;;;;5066286;28;20196;-70
2021/05/21 02:08:08;;;;;;;4.30;1.80;;;12.70;99.90;;;;;;5072389;28;20226;-70
2021/05/21 02:10:36;;;;;;;2.33;1.93;;;12.60;99.90;;;;;;5069789;28;20705;-70
2021/05/21 02:13:04;;;;;;;3.80;1.73;;;12.60;99.90;;;;;;5067663;28;20666;-70
2021/05/21 02:15:33;;;;;;;3.17;1.80;;;12.50;99.90;;;;;;5066911;28;20188;-70
2021/05/21 02:18:00;;;;;;;2.47;1.90;;;12.50;99.90;;;;;;5076590;28;20242;-69
2021/05/21 02:20:28;;;;;;;2.20;1.90;;;12.50;99.90;;;;;;5068191;28;20791;-70
2021/05/21 02:22:58;;;;;;;4.03;1.90;;;12.40;99.90;;;;;;5070048;28;20283;-70
2021/05/21 02:25:25;;;;;;;3.27;1.80;;;12.40;99.90;;;;;;5068446;28;20726;-70
2021/05/21 02:27:53;;;;;;;4.30;2.07;;;12.40;99.90;;;;;;5067085;28;20212;-70
2021/05/21 02:30:24;;;;;;;4.80;1.97;;;12.30;99.90;;;;;;5072102;28;20794;-69
2021/05/21 02:32:55;;;;;;;5.13;2.10;;;12.40;99.90;;;;;;5067551;28;20215;-70
2021/05/21 02:35:24;;;;;;;8.43;2.03;;;12.30;99.90;;;;;;5068572;28;20222;-69
2021/05/21 02:37:52;;;;;;;8.80;2.60;;;12.40;99.90;;;;;;5066310;28;20180;-70
2021/05/21 02:40:21;;;;;;;6.07;1.97;;;12.30;99.90;;;;;;5065426;28;20180;-68
2021/05/21 02:42:51;;;;;;;6.03;2.37;;;12.30;99.90;;;;;;5066389;28;20226;-70
2021/05/21 02:45:19;;;;;;;6.43;1.97;;;12.30;99.90;;;;;;5072387;28;20264;-69
2021/05/21 02:47:48;;;;;;;9.33;2.20;;;12.30;99.90;;;;;;5075522;28;20613;-70
2021/05/21 02:50:17;;;;;;;8.03;2.17;;;12.20;99.90;;;;;;5066797;28;20220;-70
2021/05/21 02:52:44;;;;;;;6.43;2.50;;;12.20;99.90;;;;;;5071783;28;20694;-70
2021/05/21 02:55:14;;;;;;;7.67;2.30;;;12.30;99.90;;;;;;5063208;28;20280;-70
2021/05/21 02:57:42;;;;;;;7.33;2.23;;;12.30;99.90;;;;;;5069373;28;20215;-70
2021/05/21 03:00:11;;;;;;;7.93;2.50;;;12.30;99.90;;;;;;5073183;28;20192;-69
2021/05/21 03:02:39;;;;;;;5.43;1.90;;;12.30;99.90;;;;;;5069255;28;20192;-70
2021/05/21 03:05:09;;;;;;;8.20;2.10;;;12.30;99.90;;;;;;5080018;28;20214;-70
2021/05/21 03:07:37;;;;;;;5.87;2.20;;;12.30;99.90;;;;;;5065341;28;20242;-70
2021/05/21 03:10:05;;;;;;;6.67;2.10;;;12.20;99.90;;;;;;5082024;28;20232;-70
2021/05/21 03:12:34;;;;;;;4.47;1.90;;;12.20;99.90;;;;;;5077844;28;20196;-71
2021/05/21 03:15:02;;;;;;;8.00;2.23;;;12.10;99.90;;;;;;5063705;28;20278;-69
2021/05/21 03:17:32;;;;;;;12.17;2.57;;;12.10;99.90;;;;;;5070579;28;20289;-69
2021/05/21 03:20:00;;;;;;;8.20;2.43;;;12.00;99.90;;;;;;5067086;28;20222;-70
2021/05/21 03:22:28;;;;;;;8.97;2.83;;;12.00;99.90;;;;;;5067127;28;20295;-70
2021/05/21 03:25:01;;;;;;;6.20;2.30;;;11.90;99.90;;;;;;5072659;28;20194;-70
2021/05/21 03:27:29;;;;;;;4.40;2.13;;;11.90;99.90;;;;;;5066819;28;20204;-69
2021/05/21 03:29:57;;;;;;;6.20;2.60;;;11.80;99.90;;;;;;5069866;28;20228;-69
2021/05/21 03:32:25;;;;;;;9.50;2.40;;;11.80;99.90;;;;;;5066195;28;20257;-69
2021/05/21 03:34:55;;;;;;;5.47;2.40;;;11.70;99.90;;;;;;5063918;28;20192;-69
2021/05/21 03:37:22;;;;;;;7.63;2.27;;;11.70;99.90;;;;;;5066619;28;20215;-69
2021/05/21 03:39:51;;;;;;;10.73;2.60;;;11.60;99.90;;;;;;5066710;28;20192;-70
2021/05/21 03:42:22;;;;;;;3.97;2.33;;;11.60;99.90;;;;;;5067991;28;20203;-69
2021/05/21 03:44:50;;;;;;;7.13;2.90;;;11.50;99.90;;;;;;5066579;28;20287;-70
2021/05/21 03:47:19;;;;;;;8.97;2.77;;;11.40;99.90;;;;;;5066284;28;20248;-69
2021/05/21 03:49:47;;;;;;;9.57;2.53;;;11.40;99.90;;;;;;5068253;28;20331;-70
2021/05/21 03:52:14;;;;;;;9.07;2.50;;;11.30;99.90;;;;;;5073379;28;20593;-70
2021/05/21 03:54:42;;;;;;;13.43;2.67;;;11.40;99.90;;;;;;5066987;28;20300;-69
2021/05/21 03:57:11;;;;;;;3.13;2.37;;;11.40;99.90;;;;;;5069754;28;20219;-70
2021/05/21 03:59:39;;;;;;;8.73;2.77;;;11.40;99.90;;;;;;5066404;28;20216;-70
2021/05/21 04:02:06;;;;;;;5.67;2.43;;;11.40;99.90;;;;;;5071423;28;20191;-69
2021/05/21 04:04:34;;;;;;;6.80;2.40;;;11.40;99.90;;;;;;5070922;28;20286;-69
2021/05/21 04:07:02;;;;;;;9.03;2.50;;;11.40;99.90;;;;;;5064206;28;20192;-69
2021/05/21 04:09:31;;;;;;;9.13;2.60;;;11.40;99.90;;;;;;5075018;28;20310;-70
2021/05/21 04:11:59;;;;;;;4.30;2.17;;;11.50;99.90;;;;;;5067051;28;20257;-70
2021/05/21 04:14:29;;;;;;;5.73;2.10;;;11.50;99.90;;;;;;5078764;28;20747;-70
2021/05/21 04:16:56;;;;;;;4.37;2.03;;;11.60;99.90;;;;;;5087689;28;20279;-70
2021/05/21 04:19:24;;;;;;;7.60;2.33;;;11.60;99.90;;;;;;5065134;28;20219;-69
2021/05/21 04:21:52;;;;;;;3.50;2.20;;;11.60;99.90;;;;;;5069962;28;20219;-70
2021/05/21 04:24:34;;;;;;;8.67;2.47;;;11.60;99.90;;;;;;5065479;28;20188;-70
2021/05/21 04:27:02;;;;;;;9.47;2.57;;;11.60;99.90;;;;;;5072479;28;20197;-70
2021/05/21 04:29:31;;;;;;;8.07;2.40;;;11.60;99.90;;;;;;5075822;28;20212;-68
2021/05/21 04:31:59;;;;;;;3.90;1.90;;;11.60;99.90;;;;;;5074072;28;20418;-69
2021/05/21 04:34:27;;;;;;;10.67;2.33;;;11.70;99.90;;;;;;5074805;28;20242;-69
2021/05/21 04:36:56;;;;;;;11.40;2.53;;;11.80;99.90;;;;;;5076087;28;20286;-69
2021/05/21 04:39:25;;;;;;;4.43;2.30;;;11.80;99.90;;;;;;5074214;28;20196;-69
2021/05/21 04:41:53;;;;;;;5.73;2.50;;;11.90;99.90;;;;;;5069722;28;20722;-70
2021/05/21 04:44:20;;;;;;;6.90;2.37;;;11.80;99.90;;;;;;5068726;28;20226;-69
2021/05/21 04:46:49;;;;;;;6.43;2.47;;;11.80;99.90;;;;;;5070752;28;20252;-69
2021/05/21 04:52:10;;;;;;;6.53;2.57;;;11.70;99.90;;;;;;5119870;27;20532;-68
2021/05/21 04:54:39;;;;;;;5.83;2.53;;;11.70;99.90;;;;;;5104112;28;20203;-67
2021/05/21 04:57:07;;;;;;;4.13;2.83;;;11.70;99.90;;;;;;5104827;28;20194;-68
2021/05/21 04:59:35;;;;;;;4.40;2.60;;;11.70;99.90;;;;;;5103358;28;20523;-68
2021/05/21 05:02:03;;;;;;;5.50;2.57;;;11.60;99.90;;;;;;5103594;28;20224;-68
2021/05/21 05:04:32;;;;;;;10.57;3.23;;;11.60;99.90;;;;;;5100409;28;20270;-68
2021/05/21 05:06:59;;;;;;;8.07;2.73;;;11.60;99.90;;;;;;5109136;28;20222;-69
2021/05/21 05:09:28;;;;;;;8.30;3.00;;;11.50;99.90;;;;;;5100450;28;20279;-69
2021/05/21 05:11:58;;;;;;;6.40;2.80;;;11.60;99.90;;;;;;5102918;28;20242;-69
2021/05/21 05:14:25;;;;;;;9.93;3.10;;;11.60;99.90;;;;;;5102477;28;20195;-68
2021/05/21 05:16:55;;;;;;;8.37;3.37;;;11.70;99.90;;;;;;5104532;28;20224;-68
2021/05/21 05:19:23;;;;;;;10.13;2.70;;;11.70;99.90;;;;;;5103597;28;20234;-67
2021/05/21 05:21:51;;;;;;;9.30;2.80;;;11.60;99.90;;;;;;5101982;28;20248;-68
2021/05/21 05:24:21;;;;;;;13.03;2.77;;;11.70;99.90;;;;;;5102464;28;20191;-68
2021/05/21 05:26:50;;;;;;;10.17;2.90;;;11.80;99.90;;;;;;5105061;28;20195;-68
2021/05/21 05:29:18;;;;;;;11.93;3.37;;;11.90;99.90;;;;;;5080287;28;20252;-68
2021/05/21 05:31:46;;;;;;;8.67;2.90;;;12.00;99.90;;;;;;5084104;28;20709;-68
2021/05/21 05:34:15;;;;;;;11.60;3.23;;;12.10;99.90;;;;;;5098864;28;20571;-68
2021/05/21 05:36:43;;;;;;;16.00;3.20;;;12.40;99.90;;;;;;5101890;28;20285;-68
2021/05/21 05:39:11;;;;;;;11.73;3.07;;;12.50;99.90;;;;;;5100003;28;20247;-68
2021/05/21 05:41:39;;;;;;;11.97;3.47;;;12.40;99.90;;;;;;5102871;28;20226;-67
2021/05/21 05:44:08;;;;;;;13.40;3.57;;;12.30;99.90;;;;;;5100758;28;20202;-68
2021/05/21 05:46:36;;;;;;;12.80;3.63;;;12.20;99.90;;;;;;5102450;28;20206;-68
2021/05/21 05:49:04;;;;;;;19.97;3.83;;;12.00;99.90;;;;;;5103665;28;20231;-67
2021/05/21 05:51:31;;;;;;;17.73;3.60;;;11.90;99.90;;;;;;5100015;28;20234;-68
2021/05/21 05:53:59;;;;;;;17.07;3.20;;;11.80;99.90;;;;;;5100089;28;20743;-69
2021/05/21 05:56:27;;;;;;;18.07;3.40;;;11.60;99.90;;;;;;5099781;28;20191;-68
2021/05/21 05:58:55;;;;;;;18.87;3.00;;;11.60;99.90;;;;;;5101576;28;20185;-68
2021/05/21 06:01:24;;;;;;;13.67;3.23;;;11.60;99.90;;;;;;5099558;28;20205;-67
2021/05/21 06:03:52;;;;;;;15.97;3.07;;;11.60;99.90;;;;;;5087056;28;20200;-69
2021/05/21 06:06:19;;;;;;;13.63;3.17;;;11.60;99.90;;;;;;5089853;28;20211;-68
2021/05/21 06:08:56;;;;;;;16.00;3.30;;;11.70;99.90;;;;;;5071904;28;20191;-68
2021/05/21 06:11:24;;;;;;;15.47;3.60;;;11.70;99.90;;;;;;5089928;28;20302;-68
2021/05/21 06:13:53;;;;;;;14.73;3.63;;;11.70;99.90;;;;;;5091163;28;20671;-68
2021/05/21 06:16:21;;;;;;;13.27;3.60;;;11.70;99.90;;;;;;5088107;28;20191;-66
2021/05/21 06:18:49;;;;;;;17.13;3.90;;;11.70;99.90;;;;;;5093508;28;20222;-68
2021/05/21 06:21:18;;;;;;;12.47;3.30;;;11.80;99.90;;;;;;5090086;28;20531;-68
2021/05/21 06:23:46;;;;;;;20.20;4.13;;;11.80;99.90;;;;;;5089866;28;20653;-69
2021/05/21 06:26:34;;;;;;;14.33;3.33;;;11.90;99.90;;;;;;5086873;28;20618;-69
2021/05/21 06:29:02;;;;;;;16.80;3.40;;;11.90;99.90;;;;;;5089439;28;20249;-68
2021/05/21 06:31:31;;;;;;;15.03;3.53;;;11.80;99.90;;;;;;5089025;28;20215;-68
2021/05/21 06:33:59;;;;;;;18.53;3.57;;;11.80;99.90;;;;;;5082132;28;20200;-68
2021/05/21 06:36:27;;;;;;;20.77;4.03;;;11.60;99.90;;;;;;5074218;28;20196;-68
2021/05/21 06:38:55;;;;;;;15.53;3.13;;;11.60;99.90;;;;;;5079423;28;20278;-68
2021/05/21 06:41:23;;;;;;;18.50;4.13;;;11.50;99.90;;;;;;5086372;28;20188;-68
2021/05/21 06:43:51;;;;;;;20.00;3.37;;;11.50;99.90;;;;;;5084823;28;20227;-68
2021/05/21 06:46:21;;;;;;;25.60;3.80;;;11.50;99.90;;;;;;5084523;28;20854;-66
2021/05/21 06:48:49;;;;;;;15.70;4.10;;;11.50;99.90;;;;;;5085918;28;20658;-67
2021/05/21 06:51:19;;;;;;;14.10;3.50;;;11.60;99.90;;;;;;5077244;28;20235;-68
2021/05/21 06:53:46;;;;;;;14.67;3.73;;;11.60;99.90;;;;;;5087582;28;20202;-69
2021/05/21 06:56:15;;;;;;;24.97;3.93;;;11.80;99.90;;;;;;5082720;28;20252;-67
2021/05/21 06:58:43;;;;;;;17.43;3.70;;;11.80;99.90;;;;;;5085583;28;20199;-68
2021/05/21 07:01:11;;;;;;;20.47;3.77;;;11.90;99.90;;;;;;5101665;28;20260;-68
2021/05/21 07:03:41;;;;;;;18.53;3.50;;;12.00;99.90;;;;;;5082791;28;20664;-68
2021/05/21 07:06:08;;;;;;;21.60;3.67;;;12.00;99.90;;;;;;5083289;28;20278;-69
2021/05/21 07:08:37;;;;;;;15.07;3.70;;;12.20;99.90;;;;;;5088229;28;20718;-68
2021/05/21 07:11:05;;;;;;;14.33;3.30;;;12.50;99.90;;;;;;5086871;28;20629;-67
2021/05/21 07:13:33;;;;;;;17.03;3.43;;;13.00;99.90;;;;;;5085127;28;20257;-64
2021/05/21 07:16:01;;;;;;;13.77;3.50;;;13.30;99.90;;;;;;5087740;28;20245;-69
2021/05/21 07:18:29;;;;;;;13.13;3.57;;;13.50;99.90;;;;;;5086792;28;20226;-68
2021/05/21 07:21:01;;;;;;;16.10;4.07;;;13.50;99.90;;;;;;5083737;28;20184;-67
2021/05/21 07:23:29;;;;;;;15.73;3.73;;;13.50;99.90;;;;;;5088340;28;20937;-69
2021/05/21 07:25:58;;;;;;;16.90;3.70;;;13.30;99.90;;;;;;5086115;28;20226;-66
2021/05/21 07:28:26;;;;;;;18.80;3.57;;;13.10;99.90;;;;;;5087225;28;20200;-69
2021/05/21 07:30:54;;;;;;;25.13;3.70;;;13.00;99.90;;;;;;5079180;28;20207;-68
2021/05/21 07:33:22;;;;;;;20.07;2.93;;;13.00;99.90;;;;;;5084238;28;20290;-67
2021/05/21 07:35:50;;;;;;;12.53;2.97;;;13.40;99.90;;;;;;5084687;28;20231;-69
2021/05/21 07:38:18;;;;;;;13.70;3.33;;;13.70;99.90;;;;;;5092341;28;20196;-68
2021/05/21 07:40:46;;;;;;;17.77;3.70;;;13.80;99.90;;;;;;5085252;28;20256;-68
2021/05/21 07:43:15;;;;;;;17.13;3.40;;;13.60;99.90;;;;;;5081834;28;20195;-69
2021/05/21 07:45:42;;;;;;;17.70;3.33;;;13.30;99.90;;;;;;5065304;28;20284;-66
2021/05/21 07:48:10;;;;;;;11.47;3.13;;;13.30;99.90;;;;;;5104952;27;20226;-69
2021/05/21 07:50:39;;;;;;;15.43;3.17;;;13.50;99.90;;;;;;5084893;28;20314;-70
2021/05/21 07:53:07;;;;;;;16.50;3.53;;;13.60;99.90;;;;;;5086259;28;20223;-69
2021/05/21 07:55:35;;;;;;;14.20;3.13;;;13.40;99.90;;;;;;5087171;28;20244;-68
2021/05/21 07:58:04;;;;;;;15.23;3.03;;;13.20;99.90;;;;;;5087363;28;20238;-68
2021/05/21 08:00:32;;;;;;;13.57;3.50;;;13.00;99.90;;;;;;5086854;28;20218;-68
2021/05/21 08:03:00;;;;;;;17.57;3.67;;;12.80;99.90;;;;;;5086771;28;20724;-68
2021/05/21 08:05:28;;;;;;;24.30;3.80;;;13.00;99.90;;;;;;5087847;28;20202;-67
2021/05/21 08:08:21;;;;;;;13.17;3.27;;;13.10;99.90;;;;;;5091169;28;20195;-68
2021/05/21 08:10:49;;;;;;;14.00;3.53;;;13.50;99.90;;;;;;5072964;28;20219;-70
2021/05/21 08:13:17;;;;;;;12.33;3.20;;;14.10;99.90;;;;;;5086634;28;20196;-68
2021/05/21 08:15:47;;;;;;;17.33;3.70;;;14.20;99.90;;;;;;5075447;28;20187;-69
2021/05/21 08:18:15;;;;;;;18.90;3.97;;;14.20;99.90;;;;;;5087236;28;20235;-68
2021/05/21 08:20:44;;;;;;;18.03;3.37;;;14.60;99.90;;;;;;5080404;28;20184;-69
2021/05/21 08:23:13;;;;;;;16.53;3.47;;;15.20;99.90;;;;;;5086027;28;20192;-68
2021/05/21 08:25:41;;;;;;;16.83;3.57;;;15.50;99.90;;;;;;5085140;28;20195;-69
2021/05/21 08:28:09;;;;;;;15.87;3.73;;;15.80;99.90;;;;;;5089542;28;20532;-70
2021/05/21 08:30:38;;;;;;;19.20;3.20;;;16.20;99.90;;;;;;5086627;28;20275;-68
2021/05/21 08:33:08;;;;;;;14.50;3.60;;;16.60;99.90;;;;;;5087748;28;20268;-69
2021/05/21 08:35:36;;;;;;;11.40;3.07;;;16.30;99.90;;;;;;5086478;28;20614;-69
2021/05/21 08:38:05;;;;;;;14.47;2.93;;;16.20;99.90;;;;;;5102033;27;20225;-68
2021/05/21 08:40:37;;;;;;;17.83;3.30;;;15.90;99.90;;;;;;5087911;28;20203;-68
2021/05/21 08:43:07;;;;;;;14.87;3.13;;;15.00;99.90;;;;;;5087526;28;20223;-69
2021/05/21 08:45:35;;;;;;;8.77;3.00;;;14.40;99.90;;;;;;5085367;28;20264;-68
2021/05/21 08:48:04;;;;;;;17.93;3.50;;;14.80;99.90;;;;;;5103731;27;20249;-68
2021/05/21 08:50:33;;;;;;;11.37;2.67;;;15.80;99.90;;;;;;5084906;28;20670;-68
2021/05/21 08:53:01;;;;;;;16.23;3.50;;;16.50;99.90;;;;;;5101955;28;20706;-67
2021/05/21 08:55:29;;;;;;;12.40;3.13;;;16.00;99.90;;;;;;5099614;28;20196;-68
2021/05/21 08:57:57;;;;;;;11.77;2.90;;;15.50;99.90;;;;;;5081784;28;20218;-67
2021/05/21 09:00:25;;;;;;;15.17;3.33;;;15.30;99.90;;;;;;5087671;28;20199;-68
2021/05/21 09:02:53;;;;;;;10.63;2.83;;;16.10;99.90;;;;;;5087634;28;21046;-68
2021/05/21 09:05:21;;;;;;;19.37;3.50;;;16.80;99.90;;;;;;5085544;28;20243;-66
2021/05/21 09:07:50;;;;;;;12.97;3.60;;;16.60;99.90;;;;;;5090207;28;20254;-68
2021/05/21 09:10:21;;;;;;;13.40;2.90;;;16.50;99.90;;;;;;5087249;28;20191;-66
2021/05/21 09:12:51;;;;;;;16.93;3.43;;;16.50;99.90;;;;;;5084356;28;20540;-67
2021/05/21 09:15:21;;;;;;;13.07;3.23;;;16.70;99.90;;;;;;5085470;28;20185;-68
2021/05/21 09:17:53;;;;;;;14.50;3.33;;;16.60;99.90;;;;;;5090251;28;20803;-69
2021/05/21 09:20:24;;;;;;;9.17;2.60;;;16.70;99.90;;;;;;5085092;28;20204;-67
2021/05/21 09:23:07;;;;;;;9.90;2.93;;;17.20;99.90;;;;;;5083075;28;20202;-68
2021/05/21 09:25:38;;;;;;;15.50;3.10;;;16.60;99.90;;;;;;5086621;28;20609;-68
2021/05/21 09:28:06;;;;;;;13.37;3.03;;;16.00;99.90;;;;;;5090089;28;20219;-68
2021/05/21 09:30:34;;;;;;;12.73;2.80;;;15.70;99.90;;;;;;5086482;28;20232;-68
2021/05/21 09:33:03;;;;;;;12.57;3.00;;;15.70;99.90;;;;;;5083158;28;20755;-67
2021/05/21 09:35:32;;;;;;;13.27;3.10;;;15.20;99.90;;;;;;5085169;28;20269;-66
2021/05/21 09:38:00;;;;;;;17.53;3.33;;;14.80;99.90;;;;;;5091572;28;20191;-67
2021/05/21 09:40:30;;;;;;;12.63;2.90;;;14.30;99.90;;;;;;5087928;28;20286;-67
2021/05/21 09:43:00;;;;;;;14.90;3.60;;;14.10;99.90;;;;;;5099692;27;20646;-68
2021/05/21 09:45:30;;;;;;;12.17;3.33;;;13.80;99.90;;;;;;5090507;28;20223;-67
2021/05/21 09:48:01;;;;;;;6.37;2.43;;;13.80;99.90;;;;;;5090657;28;20214;-70
2021/05/21 09:50:34;;;;;;;6.70;3.03;;;13.80;99.90;;;;;;5091107;28;20709;-67
2021/05/21 09:53:05;;;;;;;16.97;3.73;;;13.90;99.90;;;;;;5089933;28;20296;-68
2021/05/21 09:55:36;;;;;;;14.03;3.00;;;14.00;99.90;;;;;;5088969;28;20645;-67
2021/05/21 09:58:05;;;;;;;11.60;2.70;;;14.20;99.90;;;;;;5090168;28;20211;-67
2021/05/21 10:00:34;;;;;;;12.87;2.70;;;14.30;99.90;;;;;;5086991;28;20195;-67
2021/05/21 10:03:03;;;;;;;10.47;2.70;;;14.30;99.90;;;;;;5089117;28;20188;-67
2021/05/21 10:05:51;;;;;;;15.03;3.17;;;14.40;99.90;;;;;;5090105;28;20202;-68
2021/05/21 10:08:22;;;;;;;9.93;2.70;;;14.60;99.90;;;;;;5094419;28;20237;-69
2021/05/21 10:10:51;;;;;;;16.07;3.37;;;15.50;99.90;;;;;;5088680;28;20222;-67
2021/05/21 10:13:19;;;;;;;8.30;2.90;;;16.30;99.90;;;;;;5090864;28;20215;-68
2021/05/21 10:15:47;;;;;;;9.80;2.80;;;17.00;99.90;;;;;;5084716;28;20191;-67
2021/05/21 10:18:16;;;;;;;9.20;2.80;;;17.40;99.90;;;;;;5094532;28;20567;-68
2021/05/21 10:20:44;;;;;;;12.53;2.80;;;17.30;99.90;;;;;;5089037;28;20199;-68
2021/05/21 10:23:17;;;;;;;12.67;2.43;;;17.70;99.90;;;;;;5064351;28;20858;-68
2021/05/21 10:25:48;;;;;;;9.87;3.00;;;17.90;99.90;;;;;;5090174;28;20198;-69
2021/05/21 10:28:22;;;;;;;10.67;3.00;;;18.10;99.90;;;;;;5087086;28;20192;-67
2021/05/21 10:30:51;;;;;;;9.17;2.60;;;18.40;99.90;;;;;;5086445;28;20188;-70
2021/05/21 10:33:22;;;;;;;9.73;2.67;;;18.50;99.90;;;;;;5084835;28;20219;-68
2021/05/21 10:35:50;;;;;;;10.17;2.53;;;18.00;99.90;;;;;;5086956;28;20203;-68
2021/05/21 10:38:20;;;;;;;6.77;2.30;;;17.60;99.90;;;;;;5087720;28;20711;-66
2021/05/21 10:41:12;;;;;;;10.63;2.60;;;16.90;99.90;;;;;;5087839;28;20548;-70
2021/05/21 10:43:49;;;;;;;11.43;3.00;;;16.90;99.90;;;;;;5087321;28;20187;-69
2021/05/21 10:46:18;;;;;;;13.43;2.97;;;17.50;99.90;;;;;;5088608;28;20584;-67
2021/05/21 10:48:54;;;;;;;12.57;2.93;;;17.40;99.90;;;;;;5090677;28;20677;-69
2021/05/21 10:51:26;;;;;;;11.77;3.40;;;16.80;99.90;;;;;;5086297;28;20269;-70
2021/05/21 10:54:29;;;;;;;7.67;3.40;;;16.20;99.90;;;;;;5085798;28;20208;-68
2021/05/21 10:57:10;;;;;;;10.90;2.87;;;15.80;99.90;;;;;;5090431;28;20232;-69
2021/05/21 10:59:43;;;;;;;11.17;2.97;;;15.60;99.90;;;;;;5087794;28;20227;-68
2021/05/21 11:02:14;;;;;;;13.60;2.63;;;15.70;99.90;;;;;;5088523;28;20196;-71
2021/05/21 11:04:42;;;;;;;8.83;2.57;;;15.60;99.90;;;;;;5086668;28;20684;-64
2021/05/21 11:07:11;;;;;;;7.33;2.80;;;15.20;99.90;;;;;;5089111;28;20203;-66
2021/05/21 11:09:44;;;;;;;8.17;2.80;;;14.90;99.90;;;;;;5069220;28;20240;-68
2021/05/21 11:12:15;;;;;;;10.63;3.23;;;14.90;99.90;;;;;;5083758;28;20231;-68
2021/05/21 11:14:45;;;;;;;11.57;2.50;;;15.00;99.90;;;;;;5088520;28;20256;-67
2021/05/21 11:17:23;;;;;;;10.60;2.73;;;15.50;99.90;;;;;;5086642;28;20639;-69
2021/05/21 11:19:56;;;;;;;7.70;2.70;;;16.40;99.90;;;;;;5087019;28;20225;-68
2021/05/21 11:22:30;;;;;;;11.40;2.67;;;16.60;99.90;;;;;;5089463;28;20219;-68
2021/05/21 11:25:01;;;;;;;22.03;3.30;;;16.40;99.90;;;;;;5093338;28;20274;-69
2021/05/21 11:27:29;;;;;;;11.63;2.67;;;16.10;99.90;;;;;;5087949;28;20256;-69
2021/05/21 11:30:02;;;;;;;10.13;2.40;;;16.20;99.90;;;;;;5082380;28;20194;-67
2021/05/21 11:32:30;;;;;;;8.63;2.80;;;16.60;99.90;;;;;;5086643;28;20693;-65
2021/05/21 11:34:58;;;;;;;7.53;2.57;;;16.80;99.90;;;;;;5091728;28;20184;-72
2021/05/21 11:37:28;;;;;;;15.47;2.37;;;16.80;99.90;;;;;;5081993;28;20218;-67
2021/05/21 11:39:57;;;;;;;9.77;2.30;;;16.40;99.90;;;;;;5091716;28;20620;-67
2021/05/21 11:42:27;;;;;;;9.13;2.60;;;16.10;99.90;;;;;;5088438;28;20188;-67
2021/05/21 11:44:57;;;;;;;6.93;2.23;;;16.10;99.90;;;;;;5086736;28;20265;-68
2021/05/21 11:47:29;;;;;;;12.17;2.60;;;16.50;99.90;;;;;;5091019;28;20286;-69
2021/05/21 11:50:00;;;;;;;7.13;2.00;;;16.80;99.90;;;;;;5070884;28;20195;-69
2021/05/21 11:52:28;;;;;;;11.70;2.40;;;17.10;99.90;;;;;;5080717;28;20310;-69
2021/05/21 11:54:57;;;;;;;9.40;2.07;;;17.20;99.90;;;;;;5085723;28;20671;-67
2021/05/21 11:57:25;;;;;;;12.53;2.77;;;16.80;99.90;;;;;;5088393;28;20214;-70
2021/05/21 11:59:55;;;;;;;9.07;2.63;;;16.50;99.90;;;;;;5086569;28;20195;-70
2021/05/21 12:02:24;;;;;;;10.53;2.70;;;16.20;99.90;;;;;;5071197;28;20181;-69
2021/05/21 12:04:53;;;;;;;10.47;2.40;;;16.00;99.90;;;;;;5088896;28;20222;-68
2021/05/21 12:07:22;;;;;;;8.43;2.30;;;15.70;99.90;;;;;;5094169;28;20202;-68
2021/05/21 12:09:56;;;;;;;6.60;2.43;;;15.30;99.90;;;;;;5085093;28;20198;-68
2021/05/21 12:12:27;;;;;;;11.43;2.70;;;14.80;99.90;;;;;;5066028;28;20290;-67
2021/05/21 12:15:09;;;;;;;12.50;2.90;;;14.00;99.90;;;;;;5065645;28;20198;-67
2021/05/21 12:17:38;;;;;;;6.27;2.70;;;14.00;99.90;;;;;;5090187;28;20701;-67
2021/05/21 12:20:11;;;;;;;10.00;2.90;;;14.40;99.90;;;;;;5088910;28;20203;-67
2021/05/21 12:22:39;;;;;;;14.37;2.70;;;14.80;99.90;;;;;;5065609;28;20191;-68
2021/05/21 12:25:18;;;;;;;11.53;2.87;;;15.00;99.90;;;;;;5087622;28;20277;-68
2021/05/21 12:27:46;;;;;;;7.20;2.60;;;15.00;99.90;;;;;;5082447;28;20240;-68
2021/05/21 12:30:16;;;;;;;16.10;3.47;;;15.00;99.90;;;;;;5090709;28;20787;-68
2021/05/21 12:32:45;;;;;;;7.50;2.87;;;15.50;99.90;;;;;;5087056;28;20215;-68
2021/05/21 12:35:16;;;;;;;8.53;2.53;;;15.90;99.90;;;;;;5085473;28;20244;-68
2021/05/21 12:37:48;;;;;;;9.63;2.67;;;15.90;99.90;;;;;;5086271;28;20244;-69
2021/05/21 12:40:18;;;;;;;5.50;2.47;;;16.00;99.90;;;;;;5066932;28;20719;-67
2021/05/21 12:42:51;;;;;;;17.93;7.43;;;15.90;99.90;;;;;;5082483;28;20191;-68
2021/05/21 12:45:19;;;;;;;11.70;4.50;;;16.10;99.90;;;;;;5080224;28;21403;-68
2021/05/21 12:47:48;;;;;;;10.67;4.30;;;16.00;99.90;;;;;;5092705;28;20256;-68
2021/05/21 12:50:19;;;;;;;11.77;2.60;;;16.10;99.90;;;;;;5086416;28;20288;-67
2021/05/21 12:52:57;;;;;;;11.07;2.53;;;16.20;99.90;;;;;;5087662;28;20273;-68
2021/05/21 12:55:26;;;;;;;7.10;2.20;;;16.40;99.90;;;;;;5085552;28;20249;-70
2021/05/21 12:57:55;;;;;;;11.37;2.40;;;16.60;99.90;;;;;;5090433;28;20555;-69